sensor_id;sensor_type;location;lat;lon;timestamp;temperature;humidity
39847;DHT22;25517;52.422;10.782;2023-08-06T00:02:12;16.20;99.90
39847;DHT22;25517;52.422;10.782;2023-08-06T00:04:38;16.10;99.90
39847;DHT22;25517;52.422;10.782;2023-08-06T00:07:03;16.20;99.90
39847;DHT22;25517;52.422;10.782;2023-08-06T00:09:29;16.10;99.90
39847;DHT22;25517;52.422;10.782;2023-08-06T00:11:55;16.10;99.90
39847;DHT22;25517;52.422;10.782;2023-08-06T00:14:20;16.10;99.90
39847;DHT22;25517;52.422;10.782;2023-08-06T00:16:46;16.10;99.90
39847;DHT22;25517;52.422;10.782;2023-08-06T00:19:11;16.10;99.90
39847;DHT22;25517;52.422;10.782;2023-08-06T00:21:37;16.10;99.90
39847;DHT22;25517;52.422;10.782;2023-08-06T00:24:03;16.00;99.90
39847;DHT22;25517;52.422;10.782;2023-08-06T00:26:28;16.00;99.90
39847;DHT22;25517;52.422;10.782;2023-08-06T00:28:54;16.00;99.90
39847;DHT22;25517;52.422;10.782;2023-08-06T00:31:19;16.00;99.90
39847;DHT22;25517;52.422;10.782;2023-08-06T00:33:45;16.00;99.90
39847;DHT22;25517;52.422;10.782;2023-08-06T00:36:10;15.90;99.90
39847;DHT22;25517;52.422;10.782;2023-08-06T00:38:36;15.90;99.90
39847;DHT22;25517;52.422;10.782;2023-08-06T00:41:01;15.90;99.90
39847;DHT22;25517;52.422;10.782;2023-08-06T00:43:27;15.90;99.90
39847;DHT22;25517;52.422;10.782;2023-08-06T00:45:52;15.90;99.90
39847;DHT22;25517;52.422;10.782;2023-08-06T00:48:18;15.90;99.90
39847;DHT22;25517;52.422;10.782;2023-08-06T00:50:44;15.90;99.90
39847;DHT22;25517;52.422;10.782;2023-08-06T00:53:10;15.90;99.90
39847;DHT22;25517;52.422;10.782;2023-08-06T00:55:36;15.90;99.90
39847;DHT22;25517;52.422;10.782;2023-08-06T00:58:01;15.90;99.90
39847;DHT22;25517;52.422;10.782;2023-08-06T01:00:27;15.90;99.90
39847;DHT22;25517;52.422;10.782;2023-08-06T01:02:53;15.90;99.90
39847;DHT22;25517;52.422;10.782;2023-08-06T01:05:20;15.90;99.90
39847;DHT22;25517;52.422;10.782;2023-08-06T01:08:09;15.90;99.90
39847;DHT22;25517;52.422;10.782;2023-08-06T01:10:56;15.90;99.90
39847;DHT22;25517;52.422;10.782;2023-08-06T01:16:06;15.90;99.90
39847;DHT22;25517;52.422;10.782;2023-08-06T01:18:32;15.80;99.90
39847;DHT22;25517;52.422;10.782;2023-08-06T01:20:58;15.90;99.90
39847;DHT22;25517;52.422;10.782;2023-08-06T01:23:24;15.90;99.90
39847;DHT22;25517;52.422;10.782;2023-08-06T01:26:22;15.90;99.90
39847;DHT22;25517;52.422;10.782;2023-08-06T01:31:30;15.90;99.90
39847;DHT22;25517;52.422;10.782;2023-08-06T01:33:58;15.90;99.90
39847;DHT22;25517;52.422;10.782;2023-08-06T01:36:25;15.90;99.90
39847;DHT22;25517;52.422;10.782;2023-08-06T01:38:54;15.90;99.90
39847;DHT22;25517;52.422;10.782;2023-08-06T01:41:20;15.90;99.90
39847;DHT22;25517;52.422;10.782;2023-08-06T01:43:46;15.90;99.90
39847;DHT22;25517;52.422;10.782;2023-08-06T01:46:11;15.90;99.90
39847;DHT22;25517;52.422;10.782;2023-08-06T01:48:37;15.80;99.90
39847;DHT22;25517;52.422;10.782;2023-08-06T01:51:06;15.80;99.90
39847;DHT22;25517;52.422;10.782;2023-08-06T01:53:32;15.80;99.90
39847;DHT22;25517;52.422;10.782;2023-08-06T01:55:57;15.80;99.90
39847;DHT22;25517;52.422;10.782;2023-08-06T01:58:23;15.80;99.90
39847;DHT22;25517;52.422;10.782;2023-08-06T02:00:49;15.80;99.90
39847;DHT22;25517;52.422;10.782;2023-08-06T02:03:14;15.70;99.90
39847;DHT22;25517;52.422;10.782;2023-08-06T02:05:40;15.70;99.90
39847;DHT22;25517;52.422;10.782;2023-08-06T02:08:06;15.70;99.90
39847;DHT22;25517;52.422;10.782;2023-08-06T02:10:31;15.70;99.90
39847;DHT22;25517;52.422;10.782;2023-08-06T02:12:57;15.70;99.90
39847;DHT22;25517;52.422;10.782;2023-08-06T02:15:22;15.70;99.90
39847;DHT22;25517;52.422;10.782;2023-08-06T02:17:48;15.70;99.90
39847;DHT22;25517;52.422;10.782;2023-08-06T02:20:13;15.60;99.90
39847;DHT22;25517;52.422;10.782;2023-08-06T02:22:39;15.60;99.90
39847;DHT22;25517;52.422;10.782;2023-08-06T02:25:05;15.50;99.90
39847;DHT22;25517;52.422;10.782;2023-08-06T02:27:30;15.50;99.90
39847;DHT22;25517;52.422;10.782;2023-08-06T02:29:56;15.50;99.90
39847;DHT22;25517;52.422;10.782;2023-08-06T02:32:21;15.50;99.90
39847;DHT22;25517;52.422;10.782;2023-08-06T02:34:47;15.50;99.90
39847;DHT22;25517;52.422;10.782;2023-08-06T02:37:12;15.50;99.90
39847;DHT22;25517;52.422;10.782;2023-08-06T02:39:38;15.50;99.90
39847;DHT22;25517;52.422;10.782;2023-08-06T02:42:06;15.50;99.90
39847;DHT22;25517;52.422;10.782;2023-08-06T02:44:33;15.50;99.90
39847;DHT22;25517;52.422;10.782;2023-08-06T02:46:59;15.40;99.90
39847;DHT22;25517;52.422;10.782;2023-08-06T02:49:25;15.40;99.90
39847;DHT22;25517;52.422;10.782;2023-08-06T02:51:50;15.50;99.90
39847;DHT22;25517;52.422;10.782;2023-08-06T02:54:16;15.40;99.90
39847;DHT22;25517;52.422;10.782;2023-08-06T02:56:45;15.40;99.90
39847;DHT22;25517;52.422;10.782;2023-08-06T02:59:12;15.40;99.90
39847;DHT22;25517;52.422;10.782;2023-08-06T03:01:38;15.30;99.90
39847;DHT22;25517;52.422;10.782;2023-08-06T03:04:03;15.30;99.90
39847;DHT22;25517;52.422;10.782;2023-08-06T03:06:29;15.30;99.90
39847;DHT22;25517;52.422;10.782;2023-08-06T03:08:55;15.20;99.90
39847;DHT22;25517;52.422;10.782;2023-08-06T03:11:20;15.20;99.90
39847;DHT22;25517;52.422;10.782;2023-08-06T03:13:47;15.20;99.90
39847;DHT22;25517;52.422;10.782;2023-08-06T03:16:13;15.20;99.90
39847;DHT22;25517;52.422;10.782;2023-08-06T03:18:38;15.20;99.90
39847;DHT22;25517;52.422;10.782;2023-08-06T03:21:04;15.20;99.90
39847;DHT22;25517;52.422;10.782;2023-08-06T03:23:29;15.10;99.90
39847;DHT22;25517;52.422;10.782;2023-08-06T03:25:55;15.10;99.90
39847;DHT22;25517;52.422;10.782;2023-08-06T03:28:20;15.10;99.90
39847;DHT22;25517;52.422;10.782;2023-08-06T03:30:47;15.10;99.90
39847;DHT22;25517;52.422;10.782;2023-08-06T03:33:13;15.20;99.90
39847;DHT22;25517;52.422;10.782;2023-08-06T03:35:40;15.10;99.90
39847;DHT22;25517;52.422;10.782;2023-08-06T03:38:05;15.10;99.90
39847;DHT22;25517;52.422;10.782;2023-08-06T03:40:31;15.10;99.90
39847;DHT22;25517;52.422;10.782;2023-08-06T03:42:56;15.10;99.90
39847;DHT22;25517;52.422;10.782;2023-08-06T03:45:22;15.10;99.90
39847;DHT22;25517;52.422;10.782;2023-08-06T03:47:47;15.20;99.90
39847;DHT22;25517;52.422;10.782;2023-08-06T03:50:13;15.20;99.90
39847;DHT22;25517;52.422;10.782;2023-08-06T03:52:39;15.10;99.90
39847;DHT22;25517;52.422;10.782;2023-08-06T03:55:04;15.20;99.90
39847;DHT22;25517;52.422;10.782;2023-08-06T03:57:30;15.20;99.90
39847;DHT22;25517;52.422;10.782;2023-08-06T03:59:55;15.20;99.90
39847;DHT22;25517;52.422;10.782;2023-08-06T04:02:21;15.20;99.90
39847;DHT22;25517;52.422;10.782;2023-08-06T04:04:46;15.30;99.90
39847;DHT22;25517;52.422;10.782;2023-08-06T04:07:12;15.20;99.90
39847;DHT22;25517;52.422;10.782;2023-08-06T04:09:57;15.20;99.90
39847;DHT22;25517;52.422;10.782;2023-08-06T04:12:23;15.20;99.90
39847;DHT22;25517;52.422;10.782;2023-08-06T04:14:50;15.20;99.90
39847;DHT22;25517;52.422;10.782;2023-08-06T04:17:17;15.20;99.90
39847;DHT22;25517;52.422;10.782;2023-08-06T04:19:46;15.20;99.90
39847;DHT22;25517;52.422;10.782;2023-08-06T04:22:12;15.20;99.90
39847;DHT22;25517;52.422;10.782;2023-08-06T04:24:38;15.20;99.90
39847;DHT22;25517;52.422;10.782;2023-08-06T04:27:04;15.20;99.90
39847;DHT22;25517;52.422;10.782;2023-08-06T04:29:30;15.30;99.90
39847;DHT22;25517;52.422;10.782;2023-08-06T04:31:55;15.30;99.90
39847;DHT22;25517;52.422;10.782;2023-08-06T04:34:20;15.20;99.90
39847;DHT22;25517;52.422;10.782;2023-08-06T04:36:46;15.20;99.90
39847;DHT22;25517;52.422;10.782;2023-08-06T04:39:11;15.30;99.90
39847;DHT22;25517;52.422;10.782;2023-08-06T04:41:37;15.30;99.90
39847;DHT22;25517;52.422;10.782;2023-08-06T04:44:02;15.30;99.90
39847;DHT22;25517;52.422;10.782;2023-08-06T04:46:29;15.30;99.90
39847;DHT22;25517;52.422;10.782;2023-08-06T04:48:55;15.30;99.90
39847;DHT22;25517;52.422;10.782;2023-08-06T04:51:20;15.30;99.90
39847;DHT22;25517;52.422;10.782;2023-08-06T04:53:46;15.30;99.90
39847;DHT22;25517;52.422;10.782;2023-08-06T04:56:11;15.30;99.90
39847;DHT22;25517;52.422;10.782;2023-08-06T04:58:37;15.30;99.90
39847;DHT22;25517;52.422;10.782;2023-08-06T05:01:02;15.30;99.90
39847;DHT22;25517;52.422;10.782;2023-08-06T05:03:28;15.40;99.90
39847;DHT22;25517;52.422;10.782;2023-08-06T05:05:53;15.40;99.90
39847;DHT22;25517;52.422;10.782;2023-08-06T05:08:19;15.30;99.90
39847;DHT22;25517;52.422;10.782;2023-08-06T05:10:44;15.40;99.90
39847;DHT22;25517;52.422;10.782;2023-08-06T05:13:10;15.40;99.90
39847;DHT22;25517;52.422;10.782;2023-08-06T05:15:36;15.40;99.90
39847;DHT22;25517;52.422;10.782;2023-08-06T05:18:01;15.40;99.90
39847;DHT22;25517;52.422;10.782;2023-08-06T05:20:27;15.40;99.90
39847;DHT22;25517;52.422;10.782;2023-08-06T05:22:52;15.50;99.90
39847;DHT22;25517;52.422;10.782;2023-08-06T05:25:18;15.50;99.90
39847;DHT22;25517;52.422;10.782;2023-08-06T05:27:43;15.50;99.90
39847;DHT22;25517;52.422;10.782;2023-08-06T05:30:09;15.50;99.90
39847;DHT22;25517;52.422;10.782;2023-08-06T05:32:35;15.50;99.90
39847;DHT22;25517;52.422;10.782;2023-08-06T05:35:01;15.60;99.90
39847;DHT22;25517;52.422;10.782;2023-08-06T05:37:26;15.60;99.90
39847;DHT22;25517;52.422;10.782;2023-08-06T05:39:52;15.70;99.90
39847;DHT22;25517;52.422;10.782;2023-08-06T05:42:18;15.70;99.90
39847;DHT22;25517;52.422;10.782;2023-08-06T05:44:43;15.70;99.90
39847;DHT22;25517;52.422;10.782;2023-08-06T05:47:09;15.70;99.90
39847;DHT22;25517;52.422;10.782;2023-08-06T05:49:34;15.80;99.90
39847;DHT22;25517;52.422;10.782;2023-08-06T05:52:00;15.80;99.90
39847;DHT22;25517;52.422;10.782;2023-08-06T05:54:25;15.80;99.90
39847;DHT22;25517;52.422;10.782;2023-08-06T05:56:51;15.90;99.90
39847;DHT22;25517;52.422;10.782;2023-08-06T05:59:16;15.90;99.90
39847;DHT22;25517;52.422;10.782;2023-08-06T06:01:42;15.90;99.90
39847;DHT22;25517;52.422;10.782;2023-08-06T06:04:07;15.90;99.90
39847;DHT22;25517;52.422;10.782;2023-08-06T06:06:33;16.00;99.90
39847;DHT22;25517;52.422;10.782;2023-08-06T06:08:58;16.00;99.90
39847;DHT22;25517;52.422;10.782;2023-08-06T06:11:24;16.10;99.90
39847;DHT22;25517;52.422;10.782;2023-08-06T06:13:51;16.10;99.90
39847;DHT22;25517;52.422;10.782;2023-08-06T06:16:16;16.20;99.90
39847;DHT22;25517;52.422;10.782;2023-08-06T06:18:42;16.20;99.90
39847;DHT22;25517;52.422;10.782;2023-08-06T06:21:07;16.20;99.90
39847;DHT22;25517;52.422;10.782;2023-08-06T06:23:33;16.20;99.90
39847;DHT22;25517;52.422;10.782;2023-08-06T06:25:59;16.30;99.90
39847;DHT22;25517;52.422;10.782;2023-08-06T06:28:25;16.30;99.90
39847;DHT22;25517;52.422;10.782;2023-08-06T06:30:51;16.30;99.90
39847;DHT22;25517;52.422;10.782;2023-08-06T06:33:17;16.40;99.90
39847;DHT22;25517;52.422;10.782;2023-08-06T06:35:42;16.40;99.90
39847;DHT22;25517;52.422;10.782;2023-08-06T06:38:08;16.50;99.90
39847;DHT22;25517;52.422;10.782;2023-08-06T06:40:33;16.60;99.90
39847;DHT22;25517;52.422;10.782;2023-08-06T06:42:59;16.70;99.90
39847;DHT22;25517;52.422;10.782;2023-08-06T06:45:24;16.80;99.90
39847;DHT22;25517;52.422;10.782;2023-08-06T06:47:50;16.90;99.90
39847;DHT22;25517;52.422;10.782;2023-08-06T06:50:16;17.00;99.90
39847;DHT22;25517;52.422;10.782;2023-08-06T06:52:42;17.10;99.90
39847;DHT22;25517;52.422;10.782;2023-08-06T06:55:08;17.20;99.90
39847;DHT22;25517;52.422;10.782;2023-08-06T06:57:33;17.20;99.90
39847;DHT22;25517;52.422;10.782;2023-08-06T06:59:59;17.30;99.90
39847;DHT22;25517;52.422;10.782;2023-08-06T07:02:24;17.40;99.90
39847;DHT22;25517;52.422;10.782;2023-08-06T07:04:50;17.50;99.90
39847;DHT22;25517;52.422;10.782;2023-08-06T07:07:15;17.40;99.90
39847;DHT22;25517;52.422;10.782;2023-08-06T07:09:41;17.50;99.90
39847;DHT22;25517;52.422;10.782;2023-08-06T07:12:07;17.60;99.90
39847;DHT22;25517;52.422;10.782;2023-08-06T07:14:32;17.60;99.90
39847;DHT22;25517;52.422;10.782;2023-08-06T07:16:58;17.60;99.90
39847;DHT22;25517;52.422;10.782;2023-08-06T07:19:23;17.70;99.90
39847;DHT22;25517;52.422;10.782;2023-08-06T07:21:49;17.70;99.90
39847;DHT22;25517;52.422;10.782;2023-08-06T07:24:14;17.70;99.90
39847;DHT22;25517;52.422;10.782;2023-08-06T07:26:40;17.70;99.90
39847;DHT22;25517;52.422;10.782;2023-08-06T07:29:05;17.70;99.90
39847;DHT22;25517;52.422;10.782;2023-08-06T07:31:31;17.70;99.90
39847;DHT22;25517;52.422;10.782;2023-08-06T07:33:56;17.70;99.90
39847;DHT22;25517;52.422;10.782;2023-08-06T07:36:22;17.80;99.90
39847;DHT22;25517;52.422;10.782;2023-08-06T07:38:47;17.90;99.90
39847;DHT22;25517;52.422;10.782;2023-08-06T07:41:16;18.00;99.90
39847;DHT22;25517;52.422;10.782;2023-08-06T07:43:42;18.10;99.90
39847;DHT22;25517;52.422;10.782;2023-08-06T07:46:08;18.10;99.90
39847;DHT22;25517;52.422;10.782;2023-08-06T07:48:33;18.30;99.90
39847;DHT22;25517;52.422;10.782;2023-08-06T07:50:59;18.30;99.90
39847;DHT22;25517;52.422;10.782;2023-08-06T07:53:25;18.50;99.90
39847;DHT22;25517;52.422;10.782;2023-08-06T07:55:55;18.60;99.90
39847;DHT22;25517;52.422;10.782;2023-08-06T07:58:21;18.70;99.90
39847;DHT22;25517;52.422;10.782;2023-08-06T08:00:47;18.80;99.90
39847;DHT22;25517;52.422;10.782;2023-08-06T08:03:13;18.90;99.90
39847;DHT22;25517;52.422;10.782;2023-08-06T08:05:39;18.90;99.90
39847;DHT22;25517;52.422;10.782;2023-08-06T08:08:05;19.10;99.90
39847;DHT22;25517;52.422;10.782;2023-08-06T08:10:32;19.30;99.90
39847;DHT22;25517;52.422;10.782;2023-08-06T08:12:57;19.50;99.90
39847;DHT22;25517;52.422;10.782;2023-08-06T08:15:24;19.60;99.90
39847;DHT22;25517;52.422;10.782;2023-08-06T08:17:51;19.80;99.90
39847;DHT22;25517;52.422;10.782;2023-08-06T08:20:17;20.10;99.90
39847;DHT22;25517;52.422;10.782;2023-08-06T08:22:43;20.30;99.90
39847;DHT22;25517;52.422;10.782;2023-08-06T08:25:09;20.50;99.90
39847;DHT22;25517;52.422;10.782;2023-08-06T08:27:34;20.60;99.90
39847;DHT22;25517;52.422;10.782;2023-08-06T08:30:00;20.70;99.90
39847;DHT22;25517;52.422;10.782;2023-08-06T08:32:25;21.10;99.90
39847;DHT22;25517;52.422;10.782;2023-08-06T08:34:51;21.40;99.90
39847;DHT22;25517;52.422;10.782;2023-08-06T08:37:16;22.00;99.90
39847;DHT22;25517;52.422;10.782;2023-08-06T08:39:42;22.40;99.90
39847;DHT22;25517;52.422;10.782;2023-08-06T08:42:08;22.90;99.90
39847;DHT22;25517;52.422;10.782;2023-08-06T08:44:35;23.30;99.90
39847;DHT22;25517;52.422;10.782;2023-08-06T08:47:07;23.80;99.90
39847;DHT22;25517;52.422;10.782;2023-08-06T08:49:37;24.00;99.90
39847;DHT22;25517;52.422;10.782;2023-08-06T08:52:04;24.60;99.90
39847;DHT22;25517;52.422;10.782;2023-08-06T08:54:38;25.00;99.90
39847;DHT22;25517;52.422;10.782;2023-08-06T08:57:04;25.10;97.10
39847;DHT22;25517;52.422;10.782;2023-08-06T08:59:30;25.00;98.10
39847;DHT22;25517;52.422;10.782;2023-08-06T09:01:56;24.90;98.60
39847;DHT22;25517;52.422;10.782;2023-08-06T09:04:22;24.80;96.70
39847;DHT22;25517;52.422;10.782;2023-08-06T09:06:50;24.70;97.10
39847;DHT22;25517;52.422;10.782;2023-08-06T09:09:36;24.20;97.50
39847;DHT22;25517;52.422;10.782;2023-08-06T09:12:14;24.00;98.90
39847;DHT22;25517;52.422;10.782;2023-08-06T09:14:40;23.50;98.50
39847;DHT22;25517;52.422;10.782;2023-08-06T09:17:06;23.30;98.50
39847;DHT22;25517;52.422;10.782;2023-08-06T09:19:32;23.30;99.80
39847;DHT22;25517;52.422;10.782;2023-08-06T09:21:59;23.30;98.50
39847;DHT22;25517;52.422;10.782;2023-08-06T09:24:25;23.60;98.90
39847;DHT22;25517;52.422;10.782;2023-08-06T09:26:51;24.50;98.50
39847;DHT22;25517;52.422;10.782;2023-08-06T09:29:17;25.40;97.00
39847;DHT22;25517;52.422;10.782;2023-08-06T09:31:47;25.70;96.40
39847;DHT22;25517;52.422;10.782;2023-08-06T09:34:23;26.40;97.00
39847;DHT22;25517;52.422;10.782;2023-08-06T09:36:53;27.50;96.60
39847;DHT22;25517;52.422;10.782;2023-08-06T09:39:26;28.50;93.80
39847;DHT22;25517;52.422;10.782;2023-08-06T09:41:58;29.20;91.10
39847;DHT22;25517;52.422;10.782;2023-08-06T09:44:25;29.00;87.20
39847;DHT22;25517;52.422;10.782;2023-08-06T09:46:56;29.60;85.50
39847;DHT22;25517;52.422;10.782;2023-08-06T09:49:26;29.70;86.10
39847;DHT22;25517;52.422;10.782;2023-08-06T09:51:52;29.70;85.10
39847;DHT22;25517;52.422;10.782;2023-08-06T09:54:22;30.50;83.20
39847;DHT22;25517;52.422;10.782;2023-08-06T09:56:48;30.50;81.70
39847;DHT22;25517;52.422;10.782;2023-08-06T09:59:14;30.70;81.60
39847;DHT22;25517;52.422;10.782;2023-08-06T10:01:41;30.70;79.70
39847;DHT22;25517;52.422;10.782;2023-08-06T10:04:07;30.90;79.00
39847;DHT22;25517;52.422;10.782;2023-08-06T10:06:38;30.90;80.80
39847;DHT22;25517;52.422;10.782;2023-08-06T10:09:04;31.00;83.90
39847;DHT22;25517;52.422;10.782;2023-08-06T10:11:30;31.60;80.20
39847;DHT22;25517;52.422;10.782;2023-08-06T10:14:08;32.00;73.60
39847;DHT22;25517;52.422;10.782;2023-08-06T10:16:36;32.10;73.70
39847;DHT22;25517;52.422;10.782;2023-08-06T10:19:04;31.70;73.50
39847;DHT22;25517;52.422;10.782;2023-08-06T10:21:33;31.70;74.20
39847;DHT22;25517;52.422;10.782;2023-08-06T10:23:59;30.60;76.50
39847;DHT22;25517;52.422;10.782;2023-08-06T10:26:28;30.30;77.90
39847;DHT22;25517;52.422;10.782;2023-08-06T10:28:54;29.80;77.30
39847;DHT22;25517;52.422;10.782;2023-08-06T10:31:51;29.70;78.60
39847;DHT22;25517;52.422;10.782;2023-08-06T10:34:06;29.50;76.00
39847;DHT22;25517;52.422;10.782;2023-08-06T10:36:32;29.50;77.50
39847;DHT22;25517;52.422;10.782;2023-08-06T10:38:58;29.80;77.30
39847;DHT22;25517;52.422;10.782;2023-08-06T10:41:27;29.90;77.20
39847;DHT22;25517;52.422;10.782;2023-08-06T10:44:05;29.50;78.80
39847;DHT22;25517;52.422;10.782;2023-08-06T10:46:31;30.00;80.30
39847;DHT22;25517;52.422;10.782;2023-08-06T10:48:57;30.00;77.30
39847;DHT22;25517;52.422;10.782;2023-08-06T10:51:22;30.50;76.60
39847;DHT22;25517;52.422;10.782;2023-08-06T10:53:51;31.60;73.90
39847;DHT22;25517;52.422;10.782;2023-08-06T10:56:18;32.50;73.60
39847;DHT22;25517;52.422;10.782;2023-08-06T10:58:47;32.50;70.90
39847;DHT22;25517;52.422;10.782;2023-08-06T11:01:13;33.10;70.60
39847;DHT22;25517;52.422;10.782;2023-08-06T11:03:39;33.20;69.30
39847;DHT22;25517;52.422;10.782;2023-08-06T11:06:09;33.50;67.90
39847;DHT22;25517;52.422;10.782;2023-08-06T11:08:36;32.70;70.50
39847;DHT22;25517;52.422;10.782;2023-08-06T11:11:10;32.40;70.80
39847;DHT22;25517;52.422;10.782;2023-08-06T11:13:49;32.70;68.30
39847;DHT22;25517;52.422;10.782;2023-08-06T11:16:16;31.60;72.20
39847;DHT22;25517;52.422;10.782;2023-08-06T11:18:42;30.90;71.30
39847;DHT22;25517;52.422;10.782;2023-08-06T11:21:08;30.30;71.10
39847;DHT22;25517;52.422;10.782;2023-08-06T11:23:35;29.50;71.90
39847;DHT22;25517;52.422;10.782;2023-08-06T11:26:00;29.60;73.60
39847;DHT22;25517;52.422;10.782;2023-08-06T11:28:26;30.60;71.40
39847;DHT22;25517;52.422;10.782;2023-08-06T11:30:52;30.30;70.70
39847;DHT22;25517;52.422;10.782;2023-08-06T11:33:22;29.40;73.50
39847;DHT22;25517;52.422;10.782;2023-08-06T11:35:51;28.60;75.00
39847;DHT22;25517;52.422;10.782;2023-08-06T11:38:17;28.00;78.20
39847;DHT22;25517;52.422;10.782;2023-08-06T11:40:46;27.30;77.90
39847;DHT22;25517;52.422;10.782;2023-08-06T11:43:12;26.60;78.80
39847;DHT22;25517;52.422;10.782;2023-08-06T11:45:38;26.20;81.20
39847;DHT22;25517;52.422;10.782;2023-08-06T11:48:04;25.80;82.20
39847;DHT22;25517;52.422;10.782;2023-08-06T11:50:30;26.00;81.90
39847;DHT22;25517;52.422;10.782;2023-08-06T11:52:57;26.00;83.60
39847;DHT22;25517;52.422;10.782;2023-08-06T11:55:24;26.00;80.60
39847;DHT22;25517;52.422;10.782;2023-08-06T11:57:50;25.80;80.30
39847;DHT22;25517;52.422;10.782;2023-08-06T12:00:16;25.50;81.20
39847;DHT22;25517;52.422;10.782;2023-08-06T12:02:48;25.30;84.00
39847;DHT22;25517;52.422;10.782;2023-08-06T12:05:18;25.00;85.20
39847;DHT22;25517;52.422;10.782;2023-08-06T12:07:48;24.70;84.90
39847;DHT22;25517;52.422;10.782;2023-08-06T12:10:15;24.70;84.30
39847;DHT22;25517;52.422;10.782;2023-08-06T12:12:41;25.00;84.90
39847;DHT22;25517;52.422;10.782;2023-08-06T12:15:07;25.30;87.10
39847;DHT22;25517;52.422;10.782;2023-08-06T12:17:34;25.20;86.60
39847;DHT22;25517;52.422;10.782;2023-08-06T12:20:00;25.20;85.20
39847;DHT22;25517;52.422;10.782;2023-08-06T12:22:25;25.50;83.90
39847;DHT22;25517;52.422;10.782;2023-08-06T12:24:51;26.00;83.20
39847;DHT22;25517;52.422;10.782;2023-08-06T12:27:17;25.80;83.00
39847;DHT22;25517;52.422;10.782;2023-08-06T12:29:44;25.70;81.80
39847;DHT22;25517;52.422;10.782;2023-08-06T12:32:10;25.90;81.70
39847;DHT22;25517;52.422;10.782;2023-08-06T12:34:38;26.20;83.00
39847;DHT22;25517;52.422;10.782;2023-08-06T12:37:04;26.30;84.00
39847;DHT22;25517;52.422;10.782;2023-08-06T12:39:30;26.40;90.00
39847;DHT22;25517;52.422;10.782;2023-08-06T12:41:56;26.50;85.00
39847;DHT22;25517;52.422;10.782;2023-08-06T12:44:23;26.20;85.60
39847;DHT22;25517;52.422;10.782;2023-08-06T12:46:50;25.90;85.50
39847;DHT22;25517;52.422;10.782;2023-08-06T12:49:15;26.10;83.80
39847;DHT22;25517;52.422;10.782;2023-08-06T12:51:41;26.60;85.70
39847;DHT22;25517;52.422;10.782;2023-08-06T12:54:06;27.10;86.80
39847;DHT22;25517;52.422;10.782;2023-08-06T12:56:32;27.10;86.00
39847;DHT22;25517;52.422;10.782;2023-08-06T12:58:57;27.40;84.70
39847;DHT22;25517;52.422;10.782;2023-08-06T13:01:23;27.30;80.90
39847;DHT22;25517;52.422;10.782;2023-08-06T13:03:48;27.70;80.60
39847;DHT22;25517;52.422;10.782;2023-08-06T13:06:14;28.00;81.50
39847;DHT22;25517;52.422;10.782;2023-08-06T13:08:40;27.80;81.80
39847;DHT22;25517;52.422;10.782;2023-08-06T13:11:05;26.80;83.00
39847;DHT22;25517;52.422;10.782;2023-08-06T13:13:31;26.30;82.50
39847;DHT22;25517;52.422;10.782;2023-08-06T13:15:56;25.80;83.30
39847;DHT22;25517;52.422;10.782;2023-08-06T13:18:22;25.80;85.30
39847;DHT22;25517;52.422;10.782;2023-08-06T13:20:47;26.30;85.80
39847;DHT22;25517;52.422;10.782;2023-08-06T13:23:15;26.80;85.10
39847;DHT22;25517;52.422;10.782;2023-08-06T13:25:42;26.80;81.80
39847;DHT22;25517;52.422;10.782;2023-08-06T13:28:08;26.70;81.90
39847;DHT22;25517;52.422;10.782;2023-08-06T13:30:33;26.30;83.50
39847;DHT22;25517;52.422;10.782;2023-08-06T13:33:01;26.10;83.00
39847;DHT22;25517;52.422;10.782;2023-08-06T13:35:26;26.40;84.40
39847;DHT22;25517;52.422;10.782;2023-08-06T13:37:52;26.10;83.10
39847;DHT22;25517;52.422;10.782;2023-08-06T13:40:19;25.50;84.20
39847;DHT22;25517;52.422;10.782;2023-08-06T13:42:45;25.10;86.10
39847;DHT22;25517;52.422;10.782;2023-08-06T13:45:10;25.10;85.90
39847;DHT22;25517;52.422;10.782;2023-08-06T13:47:36;25.00;84.70
39847;DHT22;25517;52.422;10.782;2023-08-06T13:50:02;24.90;87.40
39847;DHT22;25517;52.422;10.782;2023-08-06T13:52:28;24.80;87.00
39847;DHT22;25517;52.422;10.782;2023-08-06T13:54:54;24.70;88.30
39847;DHT22;25517;52.422;10.782;2023-08-06T13:57:19;25.10;88.10
39847;DHT22;25517;52.422;10.782;2023-08-06T13:59:45;25.20;87.70
39847;DHT22;25517;52.422;10.782;2023-08-06T14:02:10;25.30;87.90
39847;DHT22;25517;52.422;10.782;2023-08-06T14:04:36;25.10;89.40
39847;DHT22;25517;52.422;10.782;2023-08-06T14:07:03;24.70;88.00
39847;DHT22;25517;52.422;10.782;2023-08-06T14:09:29;25.00;88.60
39847;DHT22;25517;52.422;10.782;2023-08-06T14:11:54;25.30;85.90
39847;DHT22;25517;52.422;10.782;2023-08-06T14:14:20;25.40;87.20
39847;DHT22;25517;52.422;10.782;2023-08-06T14:16:54;25.70;88.00
39847;DHT22;25517;52.422;10.782;2023-08-06T14:19:20;25.90;86.80
39847;DHT22;25517;52.422;10.782;2023-08-06T14:21:46;26.00;83.00
39847;DHT22;25517;52.422;10.782;2023-08-06T14:24:11;25.60;86.40
39847;DHT22;25517;52.422;10.782;2023-08-06T14:26:37;25.70;85.10
39847;DHT22;25517;52.422;10.782;2023-08-06T14:29:03;25.70;87.60
39847;DHT22;25517;52.422;10.782;2023-08-06T14:31:28;25.60;86.70
39847;DHT22;25517;52.422;10.782;2023-08-06T14:33:54;25.60;84.70
39847;DHT22;25517;52.422;10.782;2023-08-06T14:36:19;25.50;88.00
39847;DHT22;25517;52.422;10.782;2023-08-06T14:38:45;25.60;86.10
39847;DHT22;25517;52.422;10.782;2023-08-06T14:41:11;25.60;86.80
39847;DHT22;25517;52.422;10.782;2023-08-06T14:43:36;25.50;85.50
39847;DHT22;25517;52.422;10.782;2023-08-06T14:46:02;25.70;87.80
39847;DHT22;25517;52.422;10.782;2023-08-06T14:48:30;25.70;89.00
39847;DHT22;25517;52.422;10.782;2023-08-06T14:50:56;25.50;84.70
39847;DHT22;25517;52.422;10.782;2023-08-06T14:53:21;25.20;84.30
39847;DHT22;25517;52.422;10.782;2023-08-06T14:55:47;25.20;84.40
39847;DHT22;25517;52.422;10.782;2023-08-06T14:58:12;25.30;84.20
39847;DHT22;25517;52.422;10.782;2023-08-06T15:00:38;25.20;85.40
39847;DHT22;25517;52.422;10.782;2023-08-06T15:03:03;25.30;84.50
39847;DHT22;25517;52.422;10.782;2023-08-06T15:05:29;25.60;86.40
39847;DHT22;25517;52.422;10.782;2023-08-06T15:07:54;25.70;83.20
39847;DHT22;25517;52.422;10.782;2023-08-06T15:10:20;25.70;86.30
39847;DHT22;25517;52.422;10.782;2023-08-06T15:12:46;25.80;82.00
39847;DHT22;25517;52.422;10.782;2023-08-06T15:15:11;25.70;81.30
39847;DHT22;25517;52.422;10.782;2023-08-06T15:17:37;25.50;82.90